Time;durP1;ratioP1;P1;durP2;ratioP2;P2;SDS_P1;SDS_P2;PMS_P1;PMS_P2;Temp;Humidity;BMP_temperature;BMP_pressure;BME280_temperature;BME280_humidity;BME280_pressure;Samples;Min_cycle;Max_cycle;Signal;HPM_P1;HPM_P2
2022/10/05 00:00:15;;;;;;;330.77;155.30;;;;;;;;;;5015169;28;20668;-54
2022/10/05 00:02:41;;;;;;;303.87;142.83;;;;;;;;;;5017175;28;20204;-52
2022/10/05 00:05:18;;;;;;;327.50;152.07;;;;;;;;;;5015395;28;20754;-52
2022/10/05 00:07:44;;;;;;;297.63;144.53;;;;;;;;;;5019010;28;20331;-53
2022/10/05 00:10:14;;;;;;;348.43;161.93;;;;;;;;;;5020843;28;20756;-53
2022/10/05 00:12:40;;;;;;;356.23;164.60;;;;;;;;;;5022985;28;20227;-53
2022/10/05 00:15:09;;;;;;;315.53;148.87;;;;;;;;;;5014395;28;20314;-51
2022/10/05 00:17:35;;;;;;;287.90;138.03;;;;;;;;;;5025590;28;20208;-54
2022/10/05 00:20:02;;;;;;;297.67;142.03;;;;;;;;;;5028515;28;20207;-55
2022/10/05 00:22:29;;;;;;;285.73;137.10;;;;;;;;;;5029644;28;20216;-53
2022/10/05 00:24:57;;;;;;;259.83;128.13;;;;;;;;;;5027896;28;20715;-53
2022/10/05 00:27:30;;;;;;;364.90;168.87;;;;;;;;;;5024065;28;20226;-51
2022/10/05 00:29:58;;;;;;;404.47;185.50;;;;;;;;;;5014501;28;20212;-52
2022/10/05 00:32:23;;;;;;;330.87;156.73;;;;;;;;;;5020995;28;20702;-53
2022/10/05 00:34:49;;;;;;;273.53;129.90;;;;;;;;;;5026651;28;20601;-54
2022/10/05 00:37:15;;;;;;;304.07;140.57;;;;;;;;;;5011430;28;20720;-52
2022/10/05 00:39:41;;;;;;;324.83;151.10;;;;;;;;;;5015216;28;23223;-51
2022/10/05 00:42:07;;;;;;;358.10;168.53;;;;;;;;;;5008524;28;20228;-53
2022/10/05 00:44:40;;;;;;;306.83;144.37;;;;;;;;;;5006202;28;20226;-53
2022/10/05 00:47:15;;;;;;;376.03;174.40;;;;;;;;;;5019987;28;20582;-51
2022/10/05 00:49:47;;;;;;;317.73;147.13;;;;;;;;;;5013860;28;20813;-52
2022/10/05 00:52:20;;;;;;;277.40;132.27;;;;;;;;;;5018866;28;20306;-54
2022/10/05 00:55:16;;;;;;;309.13;148.00;;;;;;;;;;5015369;28;20704;-52
2022/10/05 00:58:05;;;;;;;345.57;158.87;;;;;;;;;;5017038;28;20223;-51
2022/10/05 01:00:32;;;;;;;307.50;143.23;;;;;;;;;;5019192;28;20183;-53
2022/10/05 01:03:01;;;;;;;347.67;155.93;;;;;;;;;;5006276;28;20211;-53
2022/10/05 01:05:46;;;;;;;400.83;182.70;;;;;;;;;;5008554;28;20211;-51
2022/10/05 01:08:11;;;;;;;332.70;150.73;;;;;;;;;;5030559;28;20236;-52
2022/10/05 01:10:37;;;;;;;385.10;175.97;;;;;;;;;;5014614;28;20940;-51
2022/10/05 01:13:06;;;;;;;305.30;142.77;;;;;;;;;;5017024;28;20537;-54
2022/10/05 01:15:35;;;;;;;316.40;149.17;;;;;;;;;;5014048;28;20204;-54
2022/10/05 01:18:08;;;;;;;283.97;133.80;;;;;;;;;;5027210;28;20258;-51
2022/10/05 01:20:43;;;;;;;347.83;160.70;;;;;;;;;;5018273;28;20212;-52
2022/10/05 01:23:20;;;;;;;328.60;150.03;;;;;;;;;;5011140;28;20218;-54
2022/10/05 01:25:55;;;;;;;416.87;189.73;;;;;;;;;;5009431;28;20294;-53
2022/10/05 01:28:24;;;;;;;291.87;139.20;;;;;;;;;;5008917;28;20215;-51
2022/10/05 01:30:50;;;;;;;326.67;151.97;;;;;;;;;;5010546;28;20196;-51
2022/10/05 01:33:16;;;;;;;259.77;125.50;;;;;;;;;;5014332;28;20685;-52
2022/10/05 01:36:00;;;;;;;345.37;158.17;;;;;;;;;;5010975;28;20220;-52
2022/10/05 01:38:39;;;;;;;302.67;142.37;;;;;;;;;;5016260;28;20563;-51
2022/10/05 01:41:27;;;;;;;333.40;155.63;;;;;;;;;;5010783;28;20218;-52
2022/10/05 01:43:53;;;;;;;291.57;137.63;;;;;;;;;;5007712;28;20307;-51
2022/10/05 01:46:31;;;;;;;338.10;156.93;;;;;;;;;;5009189;28;20219;-52
2022/10/05 01:49:16;;;;;;;316.20;150.47;;;;;;;;;;5012486;28;20215;-53
2022/10/05 01:51:57;;;;;;;274.73;131.33;;;;;;;;;;5013685;28;20616;-51
2022/10/05 01:54:46;;;;;;;299.63;138.83;;;;;;;;;;5016311;28;20743;-52
2022/10/05 01:57:30;;;;;;;363.27;163.33;;;;;;;;;;5012374;28;20208;-52
2022/10/05 01:59:56;;;;;;;281.87;133.43;;;;;;;;;;5014568;28;20680;-52
2022/10/05 02:02:23;;;;;;;289.00;134.60;;;;;;;;;;5011674;28;20265;-51
2022/10/05 02:05:03;;;;;;;308.10;142.40;;;;;;;;;;5017222;28;20314;-52
2022/10/05 02:07:41;;;;;;;325.13;148.23;;;;;;;;;;5013254;28;20216;-51
2022/10/05 02:10:12;;;;;;;317.83;145.87;;;;;;;;;;5012163;28;20624;-53
2022/10/05 02:12:38;;;;;;;314.43;141.73;;;;;;;;;;5029116;28;20663;-52
2022/10/05 02:15:12;;;;;;;330.23;150.47;;;;;;;;;;5016067;28;20451;-51
2022/10/05 02:17:39;;;;;;;286.37;135.53;;;;;;;;;;5021968;28;20270;-53
2022/10/05 02:20:07;;;;;;;293.70;137.57;;;;;;;;;;5015028;28;23074;-53
2022/10/05 02:22:36;;;;;;;322.17;149.87;;;;;;;;;;5018402;28;20213;-53
2022/10/05 02:25:22;;;;;;;362.93;164.13;;;;;;;;;;5009056;28;20638;-53
2022/10/05 02:27:57;;;;;;;358.97;166.57;;;;;;;;;;5011653;28;20188;-52
2022/10/05 02:30:23;;;;;;;367.73;163.40;;;;;;;;;;5008482;28;20514;-52
2022/10/05 02:32:49;;;;;;;290.17;137.53;;;;;;;;;;5014486;28;20215;-54
2022/10/05 02:35:16;;;;;;;286.57;134.90;;;;;;;;;;5016096;28;20617;-53
2022/10/05 02:37:46;;;;;;;341.37;155.03;;;;;;;;;;5020364;28;20275;-53
2022/10/05 02:40:28;;;;;;;280.80;130.83;;;;;;;;;;5025394;28;20271;-52
2022/10/05 02:43:10;;;;;;;361.57;164.23;;;;;;;;;;5013621;28;20192;-51
2022/10/05 02:45:52;;;;;;;404.57;178.73;;;;;;;;;;5013719;28;20581;-51
2022/10/05 02:48:18;;;;;;;269.40;128.60;;;;;;;;;;5025776;28;20266;-53
2022/10/05 02:50:44;;;;;;;333.60;153.87;;;;;;;;;;5009288;28;20273;-52
2022/10/05 02:53:10;;;;;;;345.47;154.10;;;;;;;;;;5023583;28;20307;-52
2022/10/05 02:55:54;;;;;;;343.17;154.50;;;;;;;;;;5015214;28;20215;-53
2022/10/05 02:58:22;;;;;;;318.37;147.53;;;;;;;;;;5018610;28;20930;-53
2022/10/05 03:00:53;;;;;;;309.80;141.23;;;;;;;;;;5017892;28;20272;-51
2022/10/05 03:03:19;;;;;;;322.70;146.93;;;;;;;;;;5011935;28;20675;-52
2022/10/05 03:05:52;;;;;;;340.67;150.77;;;;;;;;;;5016208;28;20219;-53
2022/10/05 03:08:33;;;;;;;297.50;135.20;;;;;;;;;;5016061;28;20211;-52
2022/10/05 03:11:08;;;;;;;323.40;146.90;;;;;;;;;;5012867;28;20207;-51
2022/10/05 03:13:40;;;;;;;332.97;150.13;;;;;;;;;;5011748;28;20864;-52
2022/10/05 03:16:15;;;;;;;329.53;151.20;;;;;;;;;;5013060;28;20301;-52
2022/10/05 03:19:17;;;;;;;292.23;139.77;;;;;;;;;;5028416;28;20182;-51
2022/10/05 03:21:50;;;;;;;328.00;151.87;;;;;;;;;;5024099;28;20392;-53
2022/10/05 03:24:34;;;;;;;294.03;141.47;;;;;;;;;;5023848;28;20207;-51
2022/10/05 03:27:14;;;;;;;345.17;154.80;;;;;;;;;;5013098;28;20235;-52
2022/10/05 03:29:57;;;;;;;301.57;139.40;;;;;;;;;;5013138;28;20223;-53
2022/10/05 03:32:26;;;;;;;313.37;144.07;;;;;;;;;;5021954;28;20222;-51
2022/10/05 03:35:07;;;;;;;306.80;143.07;;;;;;;;;;5018580;28;20220;-53
2022/10/05 03:37:34;;;;;;;366.23;162.10;;;;;;;;;;5018885;28;20220;-51
2022/10/05 03:40:05;;;;;;;379.03;164.60;;;;;;;;;;5018258;28;20838;-53
2022/10/05 03:42:31;;;;;;;384.77;170.87;;;;;;;;;;5008786;28;20180;-53
2022/10/05 03:44:57;;;;;;;390.67;171.40;;;;;;;;;;5008521;28;20663;-52
2022/10/05 03:47:41;;;;;;;324.17;144.57;;;;;;;;;;5019555;28;20374;-51
2022/10/05 03:50:20;;;;;;;338.67;152.07;;;;;;;;;;5021672;28;20688;-51
2022/10/05 03:52:56;;;;;;;355.90;159.10;;;;;;;;;;5015941;28;20226;-53
2022/10/05 03:55:25;;;;;;;364.43;159.57;;;;;;;;;;5014506;28;21872;-51
2022/10/05 03:57:52;;;;;;;318.40;144.03;;;;;;;;;;5012487;28;20199;-53
2022/10/05 04:00:24;;;;;;;339.37;149.50;;;;;;;;;;5013479;28;20556;-52
2022/10/05 04:02:54;;;;;;;330.63;148.70;;;;;;;;;;5020728;28;20216;-52
2022/10/05 04:05:43;;;;;;;372.30;162.33;;;;;;;;;;5021304;28;20744;-53
2022/10/05 04:08:25;;;;;;;366.07;165.07;;;;;;;;;;5014802;28;20215;-52
2022/10/05 04:10:54;;;;;;;373.53;170.97;;;;;;;;;;5015237;28;20369;-52
2022/10/05 04:13:26;;;;;;;370.57;165.53;;;;;;;;;;5017276;28;20212;-53
2022/10/05 04:16:00;;;;;;;338.77;157.17;;;;;;;;;;5013616;28;20343;-54
2022/10/05 04:18:29;;;;;;;333.80;150.43;;;;;;;;;;5012813;28;20188;-54
2022/10/05 04:20:58;;;;;;;356.03;160.47;;;;;;;;;;5014137;28;20695;-52
2022/10/05 04:23:27;;;;;;;353.43;156.20;;;;;;;;;;5007749;28;20641;-52
2022/10/05 04:25:54;;;;;;;376.53;167.57;;;;;;;;;;5016247;28;20231;-51
2022/10/05 04:28:46;;;;;;;358.83;160.90;;;;;;;;;;4992893;28;20776;-54
2022/10/05 04:31:21;;;;;;;304.37;143.50;;;;;;;;;;5003118;28;20216;-51
2022/10/05 04:33:52;;;;;;;366.73;165.57;;;;;;;;;;5015890;28;20271;-51
2022/10/05 04:36:28;;;;;;;336.70;152.87;;;;;;;;;;5021151;28;20230;-51
2022/10/05 04:39:02;;;;;;;344.87;156.10;;;;;;;;;;5006385;28;20227;-54
2022/10/05 04:41:36;;;;;;;345.87;158.57;;;;;;;;;;5010956;28;20219;-52
2022/10/05 04:44:20;;;;;;;373.80;169.23;;;;;;;;;;5008954;28;20245;-51
2022/10/05 04:46:51;;;;;;;340.47;151.93;;;;;;;;;;5013644;28;20272;-52
2022/10/05 04:49:36;;;;;;;332.93;148.13;;;;;;;;;;5023565;28;20624;-54
2022/10/05 04:52:10;;;;;;;361.83;159.43;;;;;;;;;;5013591;28;20223;-53
2022/10/05 04:54:43;;;;;;;387.43;169.23;;;;;;;;;;5015710;28;20218;-52
2022/10/05 04:57:16;;;;;;;404.93;180.30;;;;;;;;;;5015876;28;20258;-54
2022/10/05 05:00:01;;;;;;;376.50;166.30;;;;;;;;;;5007166;28;20374;-54
2022/10/05 05:02:30;;;;;;;403.37;179.93;;;;;;;;;;5011998;28;20211;-54
2022/10/05 05:05:25;;;;;;;335.97;149.03;;;;;;;;;;5017291;28;20223;-53
2022/10/05 05:08:10;;;;;;;288.73;134.00;;;;;;;;;;5023921;28;20211;-52
2022/10/05 05:10:46;;;;;;;296.13;136.93;;;;;;;;;;4996116;28;20212;-54
2022/10/05 05:13:35;;;;;;;364.70;157.50;;;;;;;;;;5006765;28;20220;-54
2022/10/05 05:16:10;;;;;;;365.63;161.83;;;;;;;;;;5012475;28;20223;-53
2022/10/05 05:18:36;;;;;;;303.97;132.53;;;;;;;;;;5029902;28;20202;-54
2022/10/05 05:21:07;;;;;;;310.83;132.00;;;;;;;;;;5021806;28;20204;-55
2022/10/05 05:23:40;;;;;;;276.60;125.97;;;;;;;;;;5021398;28;20220;-53
2022/10/05 05:26:25;;;;;;;412.50;164.97;;;;;;;;;;5010937;28;20219;-52
2022/10/05 05:28:58;;;;;;;354.27;145.80;;;;;;;;;;5007843;28;20203;-52
2022/10/05 05:31:24;;;;;;;369.63;154.43;;;;;;;;;;5024630;28;20664;-52
2022/10/05 05:33:55;;;;;;;353.37;150.77;;;;;;;;;;5015434;28;20180;-54
2022/10/05 05:36:28;;;;;;;309.63;135.50;;;;;;;;;;5019005;28;20282;-53
2022/10/05 05:39:03;;;;;;;377.77;159.67;;;;;;;;;;5019444;28;20743;-55
2022/10/05 05:41:41;;;;;;;353.37;149.50;;;;;;;;;;5017877;28;20212;-54
2022/10/05 05:44:10;;;;;;;367.50;151.17;;;;;;;;;;5025845;28;20220;-55
2022/10/05 05:46:37;;;;;;;313.93;136.03;;;;;;;;;;5023226;28;20304;-53
2022/10/05 05:49:26;;;;;;;369.47;153.53;;;;;;;;;;5019419;28;20246;-53
2022/10/05 05:51:55;;;;;;;359.63;150.57;;;;;;;;;;5012639;28;20230;-52
2022/10/05 05:54:25;;;;;;;300.90;132.13;;;;;;;;;;5019493;28;20230;-52
2022/10/05 05:56:54;;;;;;;381.83;154.83;;;;;;;;;;5008363;28;20331;-52
2022/10/05 05:59:46;;;;;;;323.17;140.87;;;;;;;;;;5025879;28;20229;-52
2022/10/05 06:02:14;;;;;;;359.37;145.60;;;;;;;;;;5013434;28;20819;-54
2022/10/05 06:04:49;;;;;;;311.73;140.47;;;;;;;;;;5013677;28;20762;-52
2022/10/05 06:07:17;;;;;;;395.33;176.23;;;;;;;;;;5013886;28;20290;-51
2022/10/05 06:09:46;;;;;;;348.93;157.77;;;;;;;;;;5027737;28;20195;-51
2022/10/05 06:12:45;;;;;;;498.97;219.40;;;;;;;;;;5015059;28;20219;-49
2022/10/05 06:15:24;;;;;;;320.43;142.80;;;;;;;;;;5009385;28;20227;-52
2022/10/05 06:17:53;;;;;;;359.10;159.53;;;;;;;;;;5031626;28;20233;-51
2022/10/05 06:20:35;;;;;;;345.17;159.00;;;;;;;;;;5021100;28;20215;-54
2022/10/05 06:23:04;;;;;;;410.40;184.07;;;;;;;;;;5020683;28;20223;-54
2022/10/05 06:25:39;;;;;;;435.00;192.90;;;;;;;;;;5011816;28;20224;-53
2022/10/05 06:28:12;;;;;;;315.47;140.50;;;;;;;;;;5022349;28;20212;-54
2022/10/05 06:30:50;;;;;;;355.60;159.77;;;;;;;;;;5025419;28;20188;-53
2022/10/05 06:33:37;;;;;;;319.23;145.20;;;;;;;;;;5033212;28;20269;-54
2022/10/05 06:36:12;;;;;;;334.77;148.87;;;;;;;;;;5017010;28;20319;-52
2022/10/05 06:38:46;;;;;;;305.73;137.00;;;;;;;;;;5038012;28;20253;-54
2022/10/05 06:41:34;;;;;;;354.10;158.87;;;;;;;;;;5038961;28;20528;-53
2022/10/05 06:44:04;;;;;;;312.53;142.33;;;;;;;;;;5037971;28;20623;-53
2022/10/05 06:46:31;;;;;;;304.97;137.03;;;;;;;;;;5035640;28;20318;-54
2022/10/05 06:49:18;;;;;;;309.03;139.73;;;;;;;;;;5040283;28;20248;-54
2022/10/05 06:52:04;;;;;;;396.90;184.30;;;;;;;;;;5037411;28;20188;-54
2022/10/05 06:57:55;;;;;;;365.07;165.97;;;;;;;;;;5046287;27;20608;-51
2022/10/05 07:00:23;;;;;;;365.73;169.13;;;;;;;;;;5011963;28;20220;-54
2022/10/05 07:03:13;;;;;;;370.13;169.40;;;;;;;;;;5010243;28;20791;-51
2022/10/05 07:05:45;;;;;;;305.93;140.10;;;;;;;;;;5028503;28;20825;-52
2022/10/05 07:08:13;;;;;;;318.40;148.57;;;;;;;;;;5038057;28;20290;-54
2022/10/05 07:10:39;;;;;;;341.53;162.13;;;;;;;;;;5031532;28;20207;-51
2022/10/05 07:13:20;;;;;;;312.43;145.93;;;;;;;;;;5036741;28;20579;-53
2022/10/05 07:16:02;;;;;;;393.20;193.27;;;;;;;;;;5013321;28;20214;-52
2022/10/05 07:18:47;;;;;;;384.27;188.07;;;;;;;;;;5023774;28;20660;-51
2022/10/05 07:21:18;;;;;;;354.87;167.53;;;;;;;;;;5020754;28;20207;-53
2022/10/05 07:23:44;;;;;;;364.00;174.17;;;;;;;;;;5011765;28;20219;-53
2022/10/05 07:26:10;;;;;;;348.00;166.87;;;;;;;;;;5015902;28;21111;-51
2022/10/05 07:28:44;;;;;;;342.23;160.00;;;;;;;;;;5025380;28;20677;-54
2022/10/05 07:31:32;;;;;;;356.30;165.47;;;;;;;;;;5016785;28;20310;-53
2022/10/05 07:34:07;;;;;;;415.30;188.03;;;;;;;;;;5019780;28;20985;-55
2022/10/05 07:39:27;;;;;;;357.87;163.47;;;;;;;;;;5012037;28;20217;-55
2022/10/05 07:42:01;;;;;;;325.20;149.77;;;;;;;;;;5024085;28;20215;-54
2022/10/05 07:44:30;;;;;;;423.93;190.87;;;;;;;;;;5026742;28;20260;-55
2022/10/05 07:47:00;;;;;;;357.30;161.93;;;;;;;;;;5027411;28;20230;-54
2022/10/05 07:49:39;;;;;;;317.40;145.27;;;;;;;;;;5029884;28;20212;-54
2022/10/05 07:52:14;;;;;;;389.87;177.17;;;;;;;;;;5022190;28;20234;-55
2022/10/05 07:54:47;;;;;;;384.30;175.70;;;;;;;;;;5029817;28;20226;-51
2022/10/05 07:57:23;;;;;;;350.27;161.10;;;;;;;;;;5035104;28;20215;-52
2022/10/05 07:59:57;;;;;;;353.67;161.00;;;;;;;;;;5030422;28;20680;-53
2022/10/05 08:02:27;;;;;;;370.63;167.60;;;;;;;;;;5028530;28;20212;-52
2022/10/05 08:04:57;;;;;;;375.00;170.30;;;;;;;;;;5029200;28;20221;-54
2022/10/05 08:07:23;;;;;;;374.07;169.70;;;;;;;;;;5022097;28;20281;-53
2022/10/05 08:09:58;;;;;;;388.40;176.93;;;;;;;;;;5008076;28;20180;-55
2022/10/05 08:12:49;;;;;;;339.10;157.13;;;;;;;;;;5015760;28;20303;-54
2022/10/05 08:15:19;;;;;;;359.40;163.63;;;;;;;;;;5014674;28;20313;-54
2022/10/05 08:17:45;;;;;;;400.53;183.07;;;;;;;;;;5009640;28;20216;-55
2022/10/05 08:20:20;;;;;;;426.23;192.17;;;;;;;;;;5008365;28;20554;-54
2022/10/05 08:22:58;;;;;;;444.50;200.47;;;;;;;;;;5008419;28;20243;-55
2022/10/05 08:25:26;;;;;;;397.30;181.83;;;;;;;;;;5000276;28;20223;-54
2022/10/05 08:27:56;;;;;;;412.60;191.00;;;;;;;;;;5000796;28;20259;-55
2022/10/05 08:30:22;;;;;;;443.33;199.93;;;;;;;;;;5005399;28;20220;-54
2022/10/05 08:33:00;;;;;;;402.43;179.77;;;;;;;;;;5005750;28;20232;-53
2022/10/05 08:35:33;;;;;;;424.10;194.27;;;;;;;;;;4989834;28;20285;-55
2022/10/05 08:37:59;;;;;;;428.83;193.87;;;;;;;;;;4988938;28;20302;-53
2022/10/05 08:40:25;;;;;;;408.17;187.17;;;;;;;;;;4996311;28;20601;-55
2022/10/05 08:42:58;;;;;;;438.10;189.43;;;;;;;;;;4989084;28;20196;-53
2022/10/05 08:45:43;;;;;;;406.07;175.33;;;;;;;;;;5016616;28;20208;-55
2022/10/05 08:48:28;;;;;;;535.67;222.00;;;;;;;;;;4976815;28;20363;-54
2022/10/05 08:51:07;;;;;;;444.70;209.53;;;;;;;;;;4998087;28;20234;-54
2022/10/05 08:53:51;;;;;;;388.33;180.87;;;;;;;;;;5013512;28;20306;-51
2022/10/05 08:56:43;;;;;;;392.17;181.70;;;;;;;;;;5002215;28;23580;-52
2022/10/05 08:59:25;;;;;;;378.23;173.93;;;;;;;;;;4981976;28;20212;-51
2022/10/05 09:01:59;;;;;;;458.50;212.60;;;;;;;;;;5006621;28;22484;-53
2022/10/05 09:04:28;;;;;;;396.03;186.13;;;;;;;;;;5007014;28;20227;-55
2022/10/05 09:07:01;;;;;;;401.20;185.37;;;;;;;;;;5012605;28;20266;-53
2022/10/05 09:09:46;;;;;;;446.73;212.40;;;;;;;;;;5006874;28;20195;-55
2022/10/05 09:12:30;;;;;;;383.40;180.27;;;;;;;;;;5004876;28;20219;-52
2022/10/05 09:15:17;;;;;;;346.60;165.93;;;;;;;;;;5013987;28;20224;-52
2022/10/05 09:18:02;;;;;;;411.10;198.70;;;;;;;;;;5021037;28;20255;-52
2022/10/05 09:20:29;;;;;;;367.33;176.50;;;;;;;;;;5017368;28;20223;-51
2022/10/05 09:22:59;;;;;;;341.60;167.03;;;;;;;;;;5018286;28;20597;-52
2022/10/05 09:25:45;;;;;;;374.10;176.07;;;;;;;;;;5021740;28;20836;-51
2022/10/05 09:28:19;;;;;;;400.30;197.53;;;;;;;;;;5022673;28;20585;-54
2022/10/05 09:31:11;;;;;;;414.73;199.43;;;;;;;;;;5015154;28;20183;-53
2022/10/05 09:33:51;;;;;;;452.83;214.50;;;;;;;;;;5003183;28;20216;-54
2022/10/05 09:36:27;;;;;;;400.93;191.83;;;;;;;;;;5016160;28;20353;-54
2022/10/05 09:39:09;;;;;;;421.00;199.93;;;;;;;;;;5008442;28;20474;-54
2022/10/05 09:41:50;;;;;;;392.70;189.63;;;;;;;;;;5007911;28;20222;-54
2022/10/05 09:44:21;;;;;;;432.23;205.00;;;;;;;;;;5004281;28;20226;-53
2022/10/05 09:46:59;;;;;;;410.87;201.63;;;;;;;;;;5009785;28;20703;-55
2022/10/05 09:49:32;;;;;;;428.73;204.40;;;;;;;;;;5010483;28;20381;-55
2022/10/05 09:52:16;;;;;;;461.17;222.40;;;;;;;;;;5010943;28;20299;-54
2022/10/05 09:55:01;;;;;;;486.33;239.03;;;;;;;;;;5007145;28;20294;-54
2022/10/05 09:57:27;;;;;;;384.00;190.07;;;;;;;;;;5011802;28;20677;-54
2022/10/05 10:00:12;;;;;;;408.53;201.37;;;;;;;;;;5009280;28;20258;-55
2022/10/05 10:02:51;;;;;;;440.70;216.70;;;;;;;;;;5008261;28;20208;-55
2022/10/05 10:05:38;;;;;;;431.93;218.50;;;;;;;;;;4993210;28;20282;-53
2022/10/05 10:08:10;;;;;;;473.00;240.37;;;;;;;;;;5000333;28;20262;-53
2022/10/05 10:10:48;;;;;;;397.30;206.77;;;;;;;;;;5007577;28;20217;-54
2022/10/05 10:13:18;;;;;;;439.90;217.83;;;;;;;;;;4996129;28;20231;-53
2022/10/05 10:16:03;;;;;;;443.17;226.23;;;;;;;;;;5009655;28;20699;-55
2022/10/05 10:18:55;;;;;;;391.20;201.57;;;;;;;;;;4987974;28;20343;-55
2022/10/05 10:21:28;;;;;;;415.10;211.83;;;;;;;;;;4979666;28;21479;-55
2022/10/05 10:24:05;;;;;;;418.70;220.30;;;;;;;;;;4992448;28;20222;-54
2022/10/05 10:26:49;;;;;;;359.80;189.98;;;;;;;;;;4991937;28;20212;-55
2022/10/05 10:29:22;;;;;;;379.33;203.45;;;;;;;;;;5004407;28;20208;-53
2022/10/05 10:32:23;;;;;;;388.95;213.05;;;;;;;;;;5008620;28;20751;-55
2022/10/05 10:34:54;;;;;;;424.30;235.05;;;;;;;;;;4917402;28;20274;-54
2022/10/05 10:37:33;;;;;;;308.20;176.07;;;;;;;;;;4988669;28;20200;-54
2022/10/05 10:40:14;;;;;;;317.40;175.43;;;;;;;;;;5019285;28;20211;-52
2022/10/05 10:42:40;;;;;;;305.77;170.38;;;;;;;;;;5007892;28;20434;-55
2022/10/05 10:45:35;;;;;;;374.85;199.98;;;;;;;;;;5002811;28;20482;-54
2022/10/05 10:48:04;;;;;;;353.48;188.50;;;;;;;;;;4999548;28;20359;-53
2022/10/05 10:50:39;;;;;;;339.52;191.85;;;;;;;;;;5013704;28;20735;-55
2022/10/05 10:53:24;;;;;;;313.73;181.90;;;;;;;;;;5013737;28;20285;-55
2022/10/05 10:56:06;;;;;;;358.55;197.50;;;;;;;;;;5008420;28;20685;-54
2022/10/05 10:58:44;;;;;;;327.48;179.70;;;;;;;;;;5011037;28;21312;-55
2022/10/05 11:01:25;;;;;;;377.70;206.30;;;;;;;;;;5010071;28;20711;-54
2022/10/05 11:03:57;;;;;;;413.63;222.48;;;;;;;;;;5007664;28;20195;-55
2022/10/05 11:06:23;;;;;;;313.65;173.00;;;;;;;;;;4999654;28;20223;-54
2022/10/05 11:09:08;;;;;;;344.27;186.77;;;;;;;;;;5011949;28;20576;-55
2022/10/05 11:11:49;;;;;;;369.10;206.35;;;;;;;;;;5003311;28;20246;-55
2022/10/05 11:14:34;;;;;;;356.98;195.80;;;;;;;;;;5013413;28;20442;-54
2022/10/05 11:17:19;;;;;;;352.58;195.88;;;;;;;;;;5005089;28;20235;-55
2022/10/05 11:19:51;;;;;;;367.80;198.32;;;;;;;;;;5005241;28;20375;-54
2022/10/05 11:22:38;;;;;;;365.10;200.98;;;;;;;;;;5011482;28;20220;-54
2022/10/05 11:25:23;;;;;;;373.05;197.50;;;;;;;;;;5009776;28;20216;-53
2022/10/05 11:27:52;;;;;;;361.17;196.25;;;;;;;;;;5010676;28;20188;-53
2022/10/05 11:30:34;;;;;;;371.38;206.95;;;;;;;;;;5012877;28;20191;-53
2022/10/05 11:33:18;;;;;;;367.45;205.43;;;;;;;;;;5010304;28;20208;-53
2022/10/05 11:35:47;;;;;;;384.98;206.15;;;;;;;;;;5006392;28;20251;-54
2022/10/05 11:38:35;;;;;;;326.20;180.95;;;;;;;;;;5013335;28;20214;-54
2022/10/05 11:41:04;;;;;;;363.88;202.05;;;;;;;;;;5008249;28;20378;-54
2022/10/05 11:43:46;;;;;;;320.67;177.88;;;;;;;;;;5019525;28;20216;-55
2022/10/05 11:46:33;;;;;;;341.70;198.40;;;;;;;;;;5009247;28;20268;-55
2022/10/05 11:48:59;;;;;;;341.80;177.63;;;;;;;;;;5017269;28;20677;-55
2022/10/05 11:51:54;;;;;;;378.38;194.82;;;;;;;;;;5012551;28;20215;-55
2022/10/05 11:54:28;;;;;;;314.75;174.23;;;;;;;;;;5000374;28;20247;-54
2022/10/05 11:57:00;;;;;;;378.90;205.05;;;;;;;;;;5017068;28;20242;-55
2022/10/05 11:59:33;;;;;;;340.77;184.15;;;;;;;;;;5014492;28;20215;-55
2022/10/05 12:02:05;;;;;;;353.58;197.05;;;;;;;;;;5015324;28;20218;-54
2022/10/05 12:04:50;;;;;;;397.65;216.15;;;;;;;;;;5003883;28;20231;-54
2022/10/05 12:07:35;;;;;;;322.55;178.25;;;;;;;;;;4997674;28;20232;-55
2022/10/05 12:10:20;;;;;;;400.83;221.05;;;;;;;;;;5008376;28;20212;-53
2022/10/05 12:13:04;;;;;;;334.83;190.73;;;;;;;;;;5010157;28;20212;-54
2022/10/05 12:15:36;;;;;;;299.95;177.40;;;;;;;;;;5009583;28;20576;-54
2022/10/05 12:18:22;;;;;;;386.65;216.57;;;;;;;;;;5008690;28;20316;-55
2022/10/05 12:20:48;;;;;;;458.55;234.82;;;;;;;;;;5005433;28;20620;-54
2022/10/05 12:23:24;;;;;;;410.88;219.95;;;;;;;;;;5011210;28;20217;-55
2022/10/05 12:25:50;;;;;;;382.02;203.07;;;;;;;;;;5016663;28;20223;-53
2022/10/05 12:28:20;;;;;;;482.42;259.80;;;;;;;;;;5015879;28;20700;-54
2022/10/05 12:30:59;;;;;;;435.83;238.30;;;;;;;;;;4998811;28;20713;-53
2022/10/05 12:33:24;;;;;;;402.20;229.38;;;;;;;;;;5002695;28;20179;-53
2022/10/05 12:36:06;;;;;;;450.13;249.25;;;;;;;;;;5001800;28;20292;-56
2022/10/05 12:38:51;;;;;;;451.17;254.93;;;;;;;;;;5010607;28;20259;-55
2022/10/05 12:41:25;;;;;;;446.40;252.63;;;;;;;;;;4993828;28;20924;-53
2022/10/05 12:43:56;;;;;;;427.30;240.25;;;;;;;;;;5005656;28;20987;-53
2022/10/05 12:46:22;;;;;;;462.85;261.23;;;;;;;;;;5000304;28;20289;-52
2022/10/05 12:49:21;;;;;;;435.75;248.25;;;;;;;;;;5007374;28;20621;-51
2022/10/05 12:52:01;;;;;;;472.58;257.92;;;;;;;;;;4987760;28;20200;-54
2022/10/05 12:54:26;;;;;;;449.70;251.45;;;;;;;;;;5000268;28;24166;-54
2022/10/05 12:57:11;;;;;;;425.95;231.52;;;;;;;;;;5013964;28;20255;-54
2022/10/05 12:59:57;;;;;;;410.52;229.63;;;;;;;;;;5011397;28;20211;-55
2022/10/05 13:02:38;;;;;;;445.48;247.50;;;;;;;;;;5009013;28;20246;-55
2022/10/05 13:05:14;;;;;;;488.65;274.58;;;;;;;;;;5017624;28;20223;-54
2022/10/05 13:07:43;;;;;;;415.80;236.57;;;;;;;;;;5014637;28;20216;-56
2022/10/05 13:10:18;;;;;;;481.27;273.20;;;;;;;;;;5010217;28;20223;-55
2022/10/05 13:12:53;;;;;;;417.73;249.35;;;;;;;;;;5013010;28;20184;-55
2022/10/05 13:15:29;;;;;;;412.70;242.27;;;;;;;;;;5015583;28;20277;-54
2022/10/05 13:18:07;;;;;;;370.50;226.18;;;;;;;;;;5024948;28;20282;-56
2022/10/05 13:20:34;;;;;;;434.90;259.05;;;;;;;;;;5021563;28;20721;-53
2022/10/05 13:23:13;;;;;;;449.52;260.67;;;;;;;;;;5010157;28;20323;-55
2022/10/05 13:25:50;;;;;;;444.88;255.48;;;;;;;;;;5008311;28;20522;-56
2022/10/05 13:28:18;;;;;;;441.42;252.20;;;;;;;;;;5002349;28;20211;-55
2022/10/05 13:30:51;;;;;;;431.02;254.18;;;;;;;;;;5010772;28;20195;-54
2022/10/05 13:33:17;;;;;;;405.45;245.32;;;;;;;;;;5013659;28;20723;-55
2022/10/05 13:35:51;;;;;;;444.33;256.42;;;;;;;;;;5009408;28;20228;-55
2022/10/05 13:38:35;;;;;;;461.02;268.33;;;;;;;;;;5014917;28;20310;-54
2022/10/05 13:41:07;;;;;;;378.90;222.43;;;;;;;;;;5018149;28;20764;-55
2022/10/05 13:43:33;;;;;;;388.95;230.90;;;;;;;;;;5019396;28;20443;-55
2022/10/05 13:46:08;;;;;;;414.75;243.00;;;;;;;;;;5011070;28;20488;-54
2022/10/05 13:48:45;;;;;;;404.02;242.30;;;;;;;;;;5017519;28;20190;-54
2022/10/05 13:51:11;;;;;;;390.27;235.18;;;;;;;;;;5020195;28;20200;-54
2022/10/05 13:54:00;;;;;;;408.60;251.23;;;;;;;;;;5009843;28;20212;-55
2022/10/05 13:56:30;;;;;;;413.15;246.38;;;;;;;;;;5003974;28;20248;-55
2022/10/05 13:59:11;;;;;;;405.05;255.40;;;;;;;;;;5015625;28;20205;-55
2022/10/05 14:01:40;;;;;;;427.73;265.80;;;;;;;;;;5007567;28;20302;-54
2022/10/05 14:04:24;;;;;;;398.55;250.57;;;;;;;;;;5013071;28;20216;-54
2022/10/05 14:06:53;;;;;;;393.33;249.05;;;;;;;;;;5005489;28;20233;-53
2022/10/05 14:09:19;;;;;;;494.30;298.23;;;;;;;;;;5010746;28;20183;-54
2022/10/05 14:11:53;;;;;;;417.30;261.50;;;;;;;;;;5018744;28;20212;-55
2022/10/05 14:14:24;;;;;;;449.55;275.02;;;;;;;;;;5008049;28;20215;-55
2022/10/05 14:16:57;;;;;;;387.05;239.48;;;;;;;;;;5005376;28;20247;-55
2022/10/05 14:19:25;;;;;;;435.42;260.35;;;;;;;;;;5006881;28;20212;-55
2022/10/05 14:21:54;;;;;;;415.63;250.43;;;;;;;;;;5009100;28;21473;-55
2022/10/05 14:24:26;;;;;;;425.08;261.20;;;;;;;;;;5011912;28;20661;-54
2022/10/05 14:26:53;;;;;;;388.90;252.07;;;;;;;;;;5014032;28;20224;-55
2022/10/05 14:29:23;;;;;;;482.80;296.77;;;;;;;;;;5008995;28;20219;-53
2022/10/05 14:31:59;;;;;;;447.60;288.58;;;;;;;;;;5011668;28;20299;-54
2022/10/05 14:34:33;;;;;;;425.00;276.23;;;;;;;;;;5000093;28;20487;-55
2022/10/05 14:37:19;;;;;;;420.40;280.95;;;;;;;;;;5000750;28;20654;-53
2022/10/05 14:39:45;;;;;;;453.55;291.40;;;;;;;;;;5007497;28;20328;-56
2022/10/05 14:42:13;;;;;;;452.38;305.75;;;;;;;;;;5004689;28;20275;-55